createdAt,value
2018-04-18T00:07:18.516Z,6.95
2018-04-18T00:08:23.390Z,6.93
2018-04-18T00:09:27.471Z,6.65
2018-04-18T00:10:31.541Z,6.60
2018-04-18T00:11:36.315Z,6.80
2018-04-18T00:12:40.572Z,7.15
2018-04-18T00:13:44.605Z,6.57
2018-04-18T00:14:48.668Z,5.60
2018-04-18T00:15:53.441Z,7.05
2018-04-18T00:16:58.190Z,7.12
2018-04-18T00:18:03.579Z,6.97
2018-04-18T00:19:07.618Z,7.10
2018-04-18T00:20:12.220Z,6.85
2018-04-18T00:21:16.271Z,6.82
2018-04-18T00:22:20.346Z,6.12
2018-04-18T00:23:25.978Z,7.20
2018-04-18T00:24:30.954Z,6.65
2018-04-18T00:25:35.219Z,6.82
2018-04-18T00:26:39.234Z,6.45
2018-04-18T00:27:43.772Z,6.32
2018-04-18T00:28:48.195Z,6.05
2018-04-18T00:29:52.235Z,6.25
2018-04-18T00:30:56.511Z,5.15
2018-04-18T00:32:01.037Z,6.50
2018-04-18T00:33:05.071Z,6.70
2018-04-18T00:34:09.446Z,6.57
2018-04-18T00:35:13.512Z,6.15
2018-04-18T00:36:17.522Z,6.70
2018-04-18T00:37:21.546Z,6.20
2018-04-18T00:38:25.554Z,6.82
2018-04-18T00:39:29.564Z,6.80
2018-04-18T00:40:34.773Z,6.43
2018-04-18T00:41:39.149Z,5.95
2018-04-18T00:42:43.154Z,6.50
2018-04-18T00:43:47.789Z,5.55
2018-04-18T00:44:51.846Z,6.07
2018-04-18T00:45:55.865Z,5.43
2018-04-18T00:47:00.228Z,6.18
2018-04-18T00:48:05.081Z,5.80
2018-04-18T00:49:09.398Z,6.85
2018-04-18T00:50:13.445Z,6.22
2018-04-18T00:51:17.732Z,5.72
2018-04-18T00:52:21.725Z,6.10
2018-04-18T00:53:25.974Z,6.25
2018-04-18T00:54:31.069Z,6.07
2018-04-18T00:55:35.379Z,6.72
2018-04-18T00:56:39.787Z,5.80
2018-04-18T00:57:44.107Z,6.25
2018-04-18T00:58:48.253Z,6.22
2018-04-18T00:59:52.234Z,5.82
2018-04-18T01:00:57.475Z,5.90
2018-04-18T01:02:03.039Z,5.00
2018-04-18T01:03:07.526Z,5.55
2018-04-18T01:04:11.539Z,5.72
2018-04-18T01:05:15.807Z,6.53
2018-04-18T01:06:20.575Z,5.60
2018-04-18T01:07:24.803Z,5.35
2018-04-18T01:08:31.170Z,6.53
2018-04-18T01:09:36.030Z,5.47
2018-04-18T01:10:40.886Z,6.25
2018-04-18T01:11:44.972Z,6.07
2018-04-18T01:12:48.977Z,5.35
2018-04-18T01:13:52.970Z,5.50
2018-04-18T01:14:56.972Z,5.57
2018-04-18T01:16:00.972Z,6.30
2018-04-18T01:17:06.010Z,5.45
2018-04-18T01:18:10.599Z,5.82
2018-04-18T01:19:14.677Z,5.72
2018-04-18T01:20:20.307Z,5.35
2018-04-18T01:21:25.153Z,5.50
2018-04-18T01:22:30.299Z,5.28
2018-04-18T01:23:34.305Z,4.85
2018-04-18T01:24:39.826Z,4.85
2018-04-18T01:25:45.686Z,5.60
2018-04-18T01:26:50.618Z,5.80
2018-04-18T01:27:55.194Z,5.28
2018-04-18T01:28:59.216Z,5.97
2018-04-18T01:30:03.662Z,5.60
2018-04-18T01:31:07.760Z,5.22
2018-04-18T01:32:12.490Z,6.05
2018-04-18T01:33:16.570Z,5.68
2018-04-18T01:34:20.552Z,5.62
2018-04-18T01:35:24.551Z,5.55
2018-04-18T01:36:28.597Z,5.30
2018-04-18T01:37:32.606Z,5.10
2018-04-18T01:38:37.394Z,6.30
2018-04-18T01:39:41.687Z,5.07
2018-04-18T01:40:45.699Z,5.03
2018-04-18T01:41:49.819Z,6.25
2018-04-18T01:42:53.965Z,4.30
2018-04-18T01:43:57.968Z,5.50
2018-04-18T01:45:02.446Z,5.80
2018-04-18T01:46:07.214Z,5.10
2018-04-18T01:47:12.387Z,4.25
2018-04-18T01:48:16.796Z,4.75
2018-04-18T01:49:23.874Z,5.10
2018-04-18T01:50:29.417Z,4.10
2018-04-18T01:51:34.158Z,5.40
2018-04-18T01:52:39.474Z,5.25
2018-04-18T01:53:43.507Z,4.78
2018-04-18T01:54:47.535Z,5.03
2018-04-18T01:55:51.514Z,4.78
2018-04-18T01:56:55.798Z,4.25
2018-04-18T01:58:00.127Z,5.45
2018-04-18T01:59:04.754Z,4.70
2018-04-18T02:00:08.782Z,4.55
2018-04-18T02:01:43.594Z,5.53
2018-04-18T02:02:48.908Z,4.93
2018-04-18T02:03:52.896Z,5.40
2018-04-18T02:04:57.066Z,5.32
2018-04-18T02:06:01.084Z,4.75
2018-04-18T02:07:05.131Z,4.25
2018-04-18T02:08:09.172Z,4.80
2018-04-18T02:09:13.789Z,5.15
2018-04-18T02:10:17.843Z,5.60
2018-04-18T02:11:21.845Z,5.20
2018-04-18T02:12:25.998Z,4.78
2018-04-18T02:13:30.141Z,5.10
2018-04-18T02:14:34.144Z,5.32
2018-04-18T02:15:38.454Z,4.55
2018-04-18T02:16:42.489Z,4.22
2018-04-18T02:17:48.234Z,4.65
2018-04-18T02:18:52.243Z,4.05
2018-04-18T02:19:56.474Z,4.85
2018-04-18T02:21:00.918Z,4.18
2018-04-18T02:22:05.668Z,4.62
2018-04-18T02:23:09.769Z,4.97
2018-04-18T02:24:14.825Z,4.15
2018-04-18T02:25:19.204Z,4.97
2018-04-18T02:26:23.647Z,4.97
2018-04-18T02:27:28.878Z,4.55
2018-04-18T02:28:35.321Z,4.05
2018-04-18T02:29:39.445Z,4.80
2018-04-18T02:30:43.466Z,4.12
2018-04-18T02:31:47.872Z,4.37
2018-04-18T02:32:51.876Z,4.87
2018-04-18T02:33:55.983Z,4.03
2018-04-18T02:34:59.987Z,4.90
2018-04-18T02:36:04.191Z,4.37
2018-04-18T02:37:09.141Z,4.57
2018-04-18T02:38:13.227Z,3.78
2018-04-18T02:39:18.918Z,3.95
2018-04-18T02:40:23.557Z,4.43
2018-04-18T02:41:27.658Z,4.43
2018-04-18T02:42:31.737Z,5.25
2018-04-18T02:43:35.726Z,4.95
2018-04-18T02:44:39.713Z,4.30
2018-04-18T02:45:43.709Z,3.83
2018-04-18T02:46:47.744Z,4.28
2018-04-18T02:47:51.984Z,3.60
2018-04-18T02:48:57.081Z,4.07
2018-04-18T02:50:02.059Z,3.72
2018-04-18T02:51:06.163Z,4.45
2018-04-18T02:52:10.191Z,4.32
2018-04-18T02:53:14.195Z,4.60
2018-04-18T02:54:18.337Z,4.57
2018-04-18T02:55:23.162Z,5.07
2018-04-18T02:56:27.936Z,4.05
2018-04-18T02:57:31.964Z,4.43
2018-04-18T02:58:35.963Z,4.45
2018-04-18T02:59:40.175Z,4.65
2018-04-18T03:00:44.225Z,4.30
2018-04-18T03:01:48.298Z,3.87
2018-04-18T03:02:53.533Z,4.05
2018-04-18T03:03:57.676Z,4.55
2018-04-18T03:05:01.887Z,4.30
2018-04-18T03:06:06.258Z,4.37
2018-04-18T03:07:10.317Z,4.28
2018-04-18T03:08:14.339Z,4.07
2018-04-18T03:09:19.245Z,4.15
2018-04-18T03:10:23.426Z,4.00
2018-04-18T03:11:27.747Z,4.37
2018-04-18T03:12:35.858Z,4.55
2018-04-18T03:13:40.699Z,5.07
2018-04-18T03:14:45.447Z,4.32
2018-04-18T03:15:49.626Z,3.78
2018-04-18T03:16:53.633Z,4.97
2018-04-18T03:17:58.339Z,4.10
2018-04-18T03:19:03.236Z,4.78
2018-04-18T03:20:07.227Z,5.00
2018-04-18T03:21:11.934Z,4.00
2018-04-18T03:24:11.710Z,4.12
2018-04-18T03:25:16.516Z,3.90
2018-04-18T03:26:20.515Z,4.43
2018-04-18T03:27:24.541Z,4.68
2018-04-18T03:28:29.030Z,4.10
2018-04-18T03:29:33.051Z,5.07
2018-04-18T03:30:36.997Z,4.55
2018-04-18T03:31:40.998Z,4.47
2018-04-18T03:32:46.112Z,4.15
2018-04-18T03:33:50.229Z,4.85
2018-04-18T03:34:55.508Z,4.28
2018-04-18T03:35:59.772Z,4.32
2018-04-18T03:37:04.228Z,4.95
2018-04-18T03:38:08.959Z,4.85
2018-04-18T03:39:12.888Z,4.10
2018-04-18T03:40:17.855Z,3.90
2018-04-18T03:41:21.872Z,4.45
2018-04-18T03:42:25.922Z,4.32
2018-04-18T03:43:31.028Z,4.10
2018-04-18T03:44:35.865Z,4.12
2018-04-18T03:45:40.624Z,4.47
2018-04-18T03:46:44.543Z,4.53
2018-04-18T03:47:48.569Z,3.67
2018-04-18T03:48:52.769Z,4.62
2018-04-18T03:49:56.695Z,4.18
2018-04-18T03:51:02.045Z,4.35
2018-04-18T03:52:06.430Z,4.30
2018-04-18T03:53:11.133Z,4.37
2018-04-18T03:54:16.350Z,4.18
2018-04-18T03:55:20.280Z,4.50
2018-04-18T03:56:24.981Z,4.28
2018-04-18T03:57:29.291Z,4.80
2018-04-18T03:58:34.026Z,4.55
2018-04-18T03:59:38.786Z,3.67
2018-04-18T04:00:43.440Z,4.18
2018-04-18T04:01:48.125Z,3.50
2018-04-18T04:02:52.149Z,4.20
2018-04-18T04:03:56.691Z,4.72
2018-04-18T04:05:00.631Z,4.72
2018-04-18T04:06:05.340Z,4.03
2018-04-18T04:07:10.939Z,4.32
2018-04-18T04:08:15.687Z,4.30
2018-04-18T04:09:20.425Z,4.28
2018-04-18T04:10:24.503Z,3.78
2018-04-18T04:11:28.409Z,4.72
2018-04-18T04:12:32.356Z,4.40
2018-04-18T04:13:37.531Z,3.60
2018-04-18T04:14:41.752Z,4.32
2018-04-18T04:15:45.687Z,4.22
2018-04-18T04:19:01.511Z,3.60
2018-04-18T04:22:19.333Z,4.07
2018-04-18T04:24:38.713Z,4.07
2018-04-18T04:25:42.764Z,4.50
2018-04-18T04:26:47.152Z,4.10
2018-04-18T04:27:51.264Z,4.62
2018-04-18T04:28:55.445Z,4.10
2018-04-18T04:29:59.831Z,3.60
2018-04-18T04:31:04.417Z,3.72
2018-04-18T04:32:09.119Z,4.65
2018-04-18T04:33:13.087Z,4.00
2018-04-18T04:34:17.243Z,4.55
2018-04-18T04:35:22.010Z,4.00
2018-04-18T04:36:25.912Z,3.62
2018-04-18T04:37:29.920Z,3.90
2018-04-18T04:38:34.345Z,4.85
2018-04-18T04:39:38.590Z,4.07
2018-04-18T04:40:42.514Z,3.28
2018-04-18T04:41:46.429Z,4.05
2018-04-18T04:42:50.786Z,3.90
2018-04-18T04:43:55.478Z,4.43
2018-04-18T04:44:59.463Z,4.22
2018-04-18T04:46:04.172Z,4.10
2018-04-18T04:47:08.169Z,3.80
2018-04-18T04:48:12.704Z,3.70
2018-04-18T04:49:16.636Z,3.72
2018-04-18T04:50:20.770Z,3.03
2018-04-18T04:51:24.704Z,4.10
2018-04-18T04:52:29.439Z,4.40
2018-04-18T04:53:33.612Z,4.35
2018-04-18T04:54:38.302Z,4.03
2018-04-18T04:55:42.223Z,4.05
2018-04-18T04:56:46.148Z,4.37
2018-04-18T04:57:50.584Z,4.40
2018-04-18T04:58:54.563Z,5.03
2018-04-18T04:59:59.248Z,3.90
2018-04-18T05:01:03.288Z,3.85
2018-04-18T05:02:08.211Z,3.60
2018-04-18T05:03:13.343Z,4.18
2018-04-18T05:04:17.666Z,5.05
2018-04-18T05:05:22.289Z,4.90
2018-04-18T05:06:26.287Z,4.22
2018-04-18T05:07:30.854Z,4.43
2018-04-18T05:08:34.824Z,4.25
2018-04-18T05:09:40.546Z,4.10
2018-04-18T05:10:44.483Z,4.18
2018-04-18T05:11:48.396Z,4.00
2018-04-18T05:12:52.630Z,3.92
2018-04-18T05:13:56.602Z,4.62
2018-04-18T05:15:00.558Z,3.70
2018-04-18T05:16:04.618Z,4.90
2018-04-18T05:17:09.697Z,4.87
2018-04-18T05:18:14.450Z,3.60
2018-04-18T05:19:19.184Z,3.62
2018-04-18T05:20:23.113Z,3.33
2018-04-18T05:21:28.838Z,4.22
2018-04-18T05:22:33.165Z,4.82
2018-04-18T05:23:37.903Z,4.60
2018-04-18T05:24:43.236Z,5.35
2018-04-18T05:25:47.152Z,3.60
2018-04-18T05:26:51.137Z,4.15
2018-04-18T05:27:57.211Z,4.05
2018-04-18T05:29:02.915Z,4.03
2018-04-18T05:30:07.271Z,4.43
2018-04-18T05:31:11.265Z,4.35
2018-04-18T05:32:16.031Z,4.53
2018-04-18T05:33:19.972Z,3.55
2018-04-18T05:34:25.316Z,4.18
2018-04-18T05:35:31.035Z,3.97
2018-04-18T05:36:34.951Z,3.65
2018-04-18T05:37:40.149Z,4.80
2018-04-18T05:38:44.112Z,3.80
2018-04-18T05:39:48.811Z,3.80
2018-04-18T05:40:53.031Z,3.45
2018-04-18T05:41:56.948Z,4.57
2018-04-18T05:43:01.093Z,4.57
2018-04-18T05:44:05.078Z,4.18
2018-04-18T05:45:09.999Z,4.07
2018-04-18T05:46:14.727Z,4.30
2018-04-18T05:47:19.478Z,4.50
2018-04-18T05:48:38.165Z,3.70
2018-04-18T05:49:42.072Z,4.80
2018-04-18T05:50:46.604Z,3.95
2018-04-18T05:51:51.356Z,4.37
2018-04-18T05:52:56.427Z,4.90
2018-04-18T05:54:01.188Z,4.37
2018-04-18T05:55:05.164Z,4.43
2018-04-18T05:56:10.048Z,3.80
2018-04-18T05:57:14.907Z,4.05
2018-04-18T05:58:20.202Z,5.00
2018-04-18T05:59:24.341Z,4.35
2018-04-18T06:00:31.232Z,4.65
2018-04-18T06:01:38.022Z,4.22
2018-04-18T06:02:42.276Z,4.15
2018-04-18T06:03:47.019Z,3.55
2018-04-18T06:04:51.272Z,4.82
2018-04-18T06:05:56.449Z,4.62
2018-04-18T06:07:01.012Z,4.50
2018-04-18T06:08:05.277Z,4.50
2018-04-18T06:09:10.266Z,4.25
2018-04-18T06:10:15.226Z,4.45
2018-04-18T06:11:19.971Z,4.97
2018-04-18T06:12:24.032Z,4.10
2018-04-18T06:13:28.105Z,4.00
2018-04-18T06:14:35.088Z,4.50
2018-04-18T06:15:40.075Z,4.12
2018-04-18T06:16:44.348Z,4.35
2018-04-18T06:17:48.452Z,3.85
2018-04-18T06:18:52.429Z,4.10
2018-04-18T06:19:56.676Z,5.50
2018-04-18T06:21:00.647Z,4.35
2018-04-18T06:22:04.667Z,5.78
2018-04-18T06:23:08.731Z,5.93
2018-04-18T06:24:13.904Z,4.95
2018-04-18T06:25:18.355Z,4.22
2018-04-18T06:26:23.052Z,4.68
2018-04-18T06:27:27.117Z,4.30
2018-04-18T06:28:33.108Z,6.47
2018-04-18T06:29:37.800Z,4.25
2018-04-18T06:30:41.884Z,4.68
2018-04-18T06:31:45.855Z,4.80
2018-04-18T06:32:49.777Z,4.85
2018-04-18T06:33:55.024Z,4.55
2018-04-18T06:34:59.083Z,4.68
2018-04-18T06:36:03.317Z,4.68
2018-04-18T06:37:07.807Z,4.68
2018-04-18T06:38:11.760Z,4.65
2018-04-18T06:39:15.748Z,5.00
2018-04-18T06:40:20.015Z,4.68
2018-04-18T06:41:24.958Z,5.32
2018-04-18T06:42:30.610Z,5.25
2018-04-18T06:43:34.572Z,4.12
2018-04-18T06:44:38.495Z,4.85
2018-04-18T06:45:42.920Z,4.57
2018-04-18T06:46:46.883Z,4.25
2018-04-18T06:47:50.815Z,4.65
2018-04-18T06:48:54.765Z,4.65
2018-04-18T06:50:00.211Z,4.10
2018-04-18T06:51:04.526Z,4.50
2018-04-18T06:52:08.860Z,4.32
2018-04-18T06:53:13.836Z,3.97
2018-04-18T06:54:19.220Z,4.30
2018-04-18T06:55:23.196Z,4.65
2018-04-18T06:56:28.392Z,4.50
2018-04-18T06:57:35.248Z,4.32
2018-04-18T06:58:40.000Z,4.75
2018-04-18T06:59:43.921Z,4.57
2018-04-18T07:00:47.882Z,4.45
2018-04-18T07:01:52.480Z,4.95
2018-04-18T07:02:57.875Z,3.85
2018-04-18T07:04:04.335Z,4.97
2018-04-18T07:05:09.200Z,4.80
2018-04-18T07:06:13.175Z,4.45
2018-04-18T07:07:17.148Z,4.82
2018-04-18T07:08:22.792Z,4.70
2018-04-18T07:09:27.052Z,5.15
2018-04-18T07:10:33.104Z,4.90
2018-04-18T07:11:39.066Z,4.30
2018-04-18T07:12:43.474Z,4.70
2018-04-18T07:13:47.664Z,4.25
2018-04-18T07:14:52.591Z,4.32
2018-04-18T07:15:56.538Z,3.92
2018-04-18T07:17:00.479Z,4.25
2018-04-18T07:18:06.341Z,4.47
2018-04-18T07:19:10.783Z,5.10
2018-04-18T07:20:15.795Z,5.20
2018-04-18T07:21:20.813Z,4.25
2018-04-18T07:22:25.558Z,4.37
2018-04-18T07:23:31.580Z,4.60
2018-04-18T07:24:36.810Z,4.80
2018-04-18T07:25:41.779Z,4.93
2018-04-18T07:26:47.276Z,4.93
2018-04-18T07:27:52.025Z,4.47
2018-04-18T07:28:58.705Z,5.03
2018-04-18T07:30:03.984Z,4.57
2018-04-18T07:31:08.262Z,4.90
2018-04-18T07:32:13.313Z,4.55
2018-04-18T07:33:17.424Z,4.75
2018-04-18T07:34:21.815Z,5.00
2018-04-18T07:35:27.674Z,4.57
2018-04-18T07:36:32.833Z,5.28
2018-04-18T07:37:38.700Z,4.60
2018-04-18T07:38:43.677Z,4.22
2018-04-18T07:39:48.413Z,4.82
2018-04-18T07:40:53.668Z,5.03
2018-04-18T07:41:58.756Z,4.20
2018-04-18T07:43:02.780Z,5.00
2018-04-18T07:44:07.537Z,4.30
2018-04-18T07:45:11.461Z,4.30
2018-04-18T07:46:16.377Z,5.12
2018-04-18T07:47:20.404Z,5.05
2018-04-18T07:48:25.774Z,4.80
2018-04-18T07:49:29.984Z,5.30
2018-04-18T07:50:35.272Z,4.70
2018-04-18T07:51:41.110Z,5.28
2018-04-18T07:52:45.186Z,5.10
2018-04-18T07:53:50.103Z,4.90
2018-04-18T07:54:54.644Z,4.97
2018-04-18T07:55:58.787Z,4.82
2018-04-18T07:57:02.916Z,5.20
2018-04-18T07:58:09.313Z,4.53
2018-04-18T07:59:13.501Z,4.80
2018-04-18T08:00:17.440Z,4.78
2018-04-18T08:01:21.935Z,5.18
2018-04-18T08:02:26.738Z,5.20
2018-04-18T08:03:31.894Z,5.10
2018-04-18T08:04:35.873Z,5.10
2018-04-18T08:05:39.796Z,4.45
2018-04-18T08:06:43.882Z,4.37
2018-04-18T08:07:49.237Z,4.00
2018-04-18T08:08:53.957Z,4.85
2018-04-18T08:09:58.661Z,4.05
2018-04-18T08:11:02.983Z,4.25
2018-04-18T08:12:07.355Z,5.32
2018-04-18T08:13:12.050Z,4.55
2018-04-18T08:14:16.394Z,5.35
2018-04-18T08:15:22.771Z,4.72
2018-04-18T08:16:27.124Z,4.82
2018-04-18T08:17:33.676Z,4.60
2018-04-18T08:18:40.044Z,5.25
2018-04-18T08:19:44.908Z,4.50
2018-04-18T08:20:49.476Z,4.40
2018-04-18T08:21:54.399Z,5.60
2018-04-18T08:22:59.310Z,4.30
2018-04-18T08:24:04.056Z,5.40
2018-04-18T08:25:08.914Z,4.82
2018-04-18T08:26:13.852Z,4.62
2018-04-18T08:27:19.236Z,4.90
2018-04-18T08:28:24.496Z,4.85
2018-04-18T08:29:31.409Z,4.30
2018-04-18T08:30:35.338Z,4.50
2018-04-18T08:31:40.782Z,4.80
2018-04-18T08:32:44.744Z,4.40
2018-04-18T08:33:48.984Z,4.10
2018-04-18T08:34:53.064Z,4.40
2018-04-18T08:35:57.761Z,4.65
2018-04-18T08:37:01.736Z,4.55
2018-04-18T08:38:05.733Z,5.45
2018-04-18T08:39:10.660Z,5.15
2018-04-18T08:40:15.648Z,4.85
2018-04-18T08:41:21.301Z,4.32
2018-04-18T08:42:25.780Z,5.72
2018-04-18T08:43:31.332Z,4.20
2018-04-18T08:44:38.076Z,4.70
2018-04-18T08:45:42.809Z,4.57
2018-04-18T08:46:47.861Z,5.30
2018-04-18T08:47:51.797Z,4.97
2018-04-18T08:48:58.198Z,6.10
2018-04-18T08:51:05.748Z,4.90
2018-04-18T08:52:10.324Z,5.20
2018-04-18T08:53:14.996Z,5.12
2018-04-18T08:54:20.655Z,3.90
2018-04-18T08:55:24.588Z,4.62
2018-04-18T08:56:29.021Z,3.40
2018-04-18T08:57:33.885Z,4.37
2018-04-18T08:58:38.244Z,5.20
2018-04-18T08:59:42.528Z,4.22
2018-04-18T09:00:47.791Z,4.45
2018-04-18T09:01:51.768Z,4.82
2018-04-18T09:02:55.720Z,4.40
2018-04-18T09:04:00.392Z,4.80
2018-04-18T09:05:05.511Z,5.35
2018-04-18T09:06:09.524Z,4.40
2018-04-18T09:07:18.321Z,4.37
2018-04-18T09:08:22.248Z,4.65
2018-04-18T09:09:27.504Z,4.62
2018-04-18T09:10:33.251Z,4.10
2018-04-18T09:11:39.033Z,4.78
2018-04-18T09:12:43.661Z,4.35
2018-04-18T09:13:48.783Z,5.97
2018-04-18T09:14:53.488Z,3.90
2018-04-18T09:15:58.592Z,4.10
2018-04-18T09:17:02.891Z,4.12
2018-04-18T09:18:07.695Z,4.65
2018-04-18T09:19:13.734Z,4.50
2018-04-18T09:20:19.408Z,4.37
2018-04-18T09:21:24.092Z,4.62
2018-04-18T09:22:29.251Z,4.87
2018-04-18T09:23:35.900Z,5.10
2018-04-18T09:24:41.638Z,4.72
2018-04-18T09:25:47.617Z,5.70
2018-04-18T09:26:52.012Z,4.53
2018-04-18T09:27:55.970Z,4.80
2018-04-18T09:29:00.652Z,4.35
2018-04-18T09:30:05.804Z,5.05
2018-04-18T09:31:10.620Z,4.18
2018-04-18T09:32:15.344Z,4.07
2018-04-18T09:33:20.145Z,4.75
2018-04-18T09:34:24.058Z,4.30
2018-04-18T09:35:28.912Z,4.60
2018-04-18T09:36:32.845Z,4.03
2018-04-18T09:37:37.650Z,4.20
2018-04-18T09:38:41.911Z,4.72
2018-04-18T09:39:46.711Z,4.85
2018-04-18T09:40:51.152Z,4.60
2018-04-18T09:41:55.688Z,4.90
2018-04-18T09:43:00.342Z,4.35
2018-04-18T09:44:06.017Z,4.62
2018-04-18T09:45:10.233Z,5.55
2018-04-18T09:46:14.893Z,5.37
2018-04-18T09:47:19.271Z,4.60
2018-04-18T09:48:24.083Z,4.55
2018-04-18T09:49:28.036Z,4.60
2018-04-18T09:50:32.014Z,4.68
2018-04-18T09:51:36.400Z,4.70
2018-04-18T09:52:40.432Z,5.05
2018-04-18T09:53:44.636Z,4.68
2018-04-18T09:54:53.502Z,5.12
2018-04-18T09:55:57.435Z,5.03
2018-04-18T09:57:01.740Z,5.05
2018-04-18T09:58:08.042Z,5.30
2018-04-18T09:59:14.491Z,4.90
2018-04-18T10:00:23.784Z,4.95
2018-04-18T10:01:31.894Z,5.10
2018-04-18T10:02:37.536Z,5.07
2018-04-18T10:03:46.780Z,4.35
2018-04-18T10:04:51.552Z,5.12
2018-04-18T10:05:56.334Z,5.60
2018-04-18T10:07:01.750Z,5.37
2018-04-18T10:08:08.661Z,5.47
2018-04-18T10:09:13.372Z,4.95
2018-04-18T10:10:20.423Z,4.78
2018-04-18T10:11:24.499Z,5.15
2018-04-18T10:12:29.736Z,5.40
2018-04-18T10:13:35.302Z,6.07
2018-04-18T10:14:40.568Z,5.12
2018-04-18T10:15:46.421Z,4.80
2018-04-18T10:16:51.183Z,4.72
2018-04-18T10:17:57.263Z,5.35
2018-04-18T10:19:02.049Z,6.18
2018-04-18T10:20:06.244Z,5.50
2018-04-18T10:21:11.534Z,5.32
2018-04-18T10:22:16.118Z,6.32
2018-04-18T10:23:20.444Z,5.50
2018-04-18T10:24:25.404Z,6.07
2018-04-18T10:25:30.400Z,5.25
2018-04-18T10:26:34.855Z,5.20
2018-04-18T10:27:38.824Z,5.93
2018-04-18T10:28:42.826Z,5.50
2018-04-18T10:29:46.868Z,5.57
2018-04-18T10:30:51.447Z,5.65
2018-04-18T10:31:56.627Z,6.50
2018-04-18T10:33:01.061Z,7.07
2018-04-18T10:34:05.053Z,6.12
2018-04-18T10:35:10.288Z,6.10
2018-04-18T10:36:15.093Z,7.10
2018-04-18T10:37:20.012Z,5.45
2018-04-18T10:38:25.095Z,6.18
2018-04-18T10:39:29.861Z,5.78
2018-04-18T10:40:33.953Z,6.35
2018-04-18T10:41:39.043Z,5.18
2018-04-18T10:42:44.468Z,5.55
2018-04-18T10:43:50.304Z,5.60
2018-04-18T10:44:56.063Z,6.32
2018-04-18T10:46:00.036Z,6.90
2018-04-18T10:47:06.162Z,5.95
2018-04-18T10:48:10.975Z,6.28
2018-04-18T10:49:15.845Z,6.12
2018-04-18T10:50:21.188Z,5.80
2018-04-18T10:51:27.221Z,5.50
2018-04-18T10:52:31.957Z,5.85
2018-04-18T10:53:35.948Z,5.60
2018-04-18T10:54:40.044Z,6.05
2018-04-18T10:55:47.459Z,6.60
2018-04-18T10:56:53.308Z,5.25
2018-04-18T10:57:58.072Z,5.55
2018-04-18T10:59:02.837Z,5.50
2018-04-18T11:00:06.901Z,6.40
2018-04-18T11:01:12.661Z,5.97
2018-04-18T11:02:16.644Z,5.78
2018-04-18T11:03:20.660Z,6.10
2018-04-18T11:04:24.636Z,6.43
2018-04-18T11:05:29.325Z,6.50
2018-04-18T11:06:35.169Z,6.20
2018-04-18T11:07:40.083Z,5.65
2018-04-18T11:08:44.099Z,6.65
2018-04-18T11:11:09.353Z,6.30
2018-04-18T11:12:14.419Z,6.95
2018-04-18T11:13:20.532Z,5.37
2018-04-18T11:14:25.280Z,5.82
2018-04-18T11:15:29.269Z,5.95
2018-04-18T11:16:35.036Z,6.37
2018-04-18T11:17:39.856Z,5.97
2018-04-18T11:18:43.818Z,6.30
2018-04-18T11:19:50.010Z,5.50
2018-04-18T11:20:54.761Z,7.32
2018-04-18T11:21:59.623Z,5.78
2018-04-18T11:23:06.129Z,5.55
2018-04-18T11:25:14.594Z,5.70
2018-04-18T11:26:18.809Z,5.22
2018-04-18T11:27:23.642Z,5.45
2018-04-18T11:28:28.405Z,6.80
2018-04-18T11:29:33.388Z,5.68
2018-04-18T11:30:39.427Z,5.80
2018-04-18T11:31:43.993Z,7.70
2018-04-18T11:32:48.592Z,6.32
2018-04-18T11:33:53.802Z,7.00
2018-04-18T11:34:58.811Z,5.55
2018-04-18T11:36:02.809Z,5.95
2018-04-18T11:37:07.044Z,5.15
2018-04-18T11:38:11.033Z,6.05
2018-04-18T11:39:16.026Z,5.70
2018-04-18T11:40:20.531Z,6.82
2018-04-18T11:41:26.516Z,8.10
2018-04-18T11:42:31.241Z,5.45
2018-04-18T11:43:38.533Z,5.62
2018-04-18T11:44:42.776Z,6.68
2018-04-18T11:45:48.092Z,5.85
2018-04-18T11:46:52.064Z,5.30
2018-04-18T11:47:56.767Z,4.97
2018-04-18T11:49:01.360Z,5.30
2018-04-18T11:50:08.147Z,6.95
2018-04-18T11:51:14.188Z,5.43
2018-04-18T11:52:19.893Z,5.87
2018-04-18T11:53:24.567Z,5.25
2018-04-18T11:54:30.057Z,5.93
2018-04-18T11:55:34.446Z,6.30
2018-04-18T11:56:39.147Z,6.00
2018-04-18T11:57:50.862Z,5.45
2018-04-18T11:58:58.945Z,5.97
2018-04-18T12:00:05.393Z,6.18
2018-04-18T12:01:10.515Z,5.30
2018-04-18T12:02:15.729Z,5.40
2018-04-18T12:03:19.719Z,5.87
2018-04-18T12:04:25.233Z,5.00
2018-04-18T12:05:29.567Z,5.00
2018-04-18T12:06:34.091Z,5.70
2018-04-18T12:07:38.063Z,5.30
2018-04-18T12:08:42.813Z,6.43
2018-04-18T12:09:46.868Z,6.10
2018-04-18T12:10:53.796Z,4.90
2018-04-18T12:11:58.465Z,5.15
2018-04-18T12:13:03.741Z,5.68
2018-04-18T12:14:10.220Z,6.22
2018-04-18T12:15:16.097Z,5.12
2018-04-18T12:16:21.009Z,5.70
2018-04-18T12:17:24.969Z,5.05
2018-04-18T12:18:29.309Z,5.97
2018-04-18T12:19:34.045Z,5.60
2018-04-18T12:20:38.115Z,4.72
2018-04-18T12:21:43.520Z,6.80
2018-04-18T12:22:47.556Z,6.05
2018-04-18T12:23:52.691Z,6.40
2018-04-18T12:24:58.441Z,6.10
2018-04-18T12:26:04.401Z,6.20
2018-04-18T12:27:08.421Z,5.25
2018-04-18T12:28:12.549Z,5.90
2018-04-18T12:29:17.417Z,6.10
2018-04-18T12:30:21.722Z,5.90
2018-04-18T12:31:25.946Z,5.53
2018-04-18T12:32:31.041Z,5.62
2018-04-18T12:33:35.745Z,5.18
2018-04-18T12:34:40.792Z,6.07
2018-04-18T12:35:44.868Z,6.03
2018-04-18T12:36:49.764Z,5.50
2018-04-18T12:37:56.738Z,4.90
2018-04-18T12:39:01.717Z,5.37
2018-04-18T12:40:05.664Z,5.45
2018-04-18T12:41:09.631Z,5.65
2018-04-18T12:42:13.765Z,5.25
2018-04-18T12:43:17.754Z,5.30
2018-04-18T12:44:22.675Z,4.57
2018-04-18T12:45:26.672Z,5.57
2018-04-18T12:46:30.612Z,5.00
2018-04-18T12:47:35.564Z,5.80
2018-04-18T12:48:41.078Z,5.60
2018-04-18T12:49:45.291Z,5.50
2018-04-18T12:50:49.452Z,5.07
2018-04-18T12:51:54.452Z,5.90
2018-04-18T12:53:02.905Z,5.30
2018-04-18T12:54:08.483Z,5.40
2018-04-18T12:55:12.508Z,5.28
2018-04-18T12:56:16.870Z,5.93
2018-04-18T12:57:22.717Z,4.55
2018-04-18T12:58:27.448Z,5.15
2018-04-18T12:59:32.109Z,4.82
2018-04-18T13:00:36.284Z,5.18
2018-04-18T13:01:40.324Z,4.85
2018-04-18T13:02:46.252Z,5.40
2018-04-18T13:03:51.109Z,6.62
2018-04-18T13:04:56.259Z,5.40
2018-04-18T13:06:00.275Z,5.82
2018-04-18T13:07:05.656Z,8.35
2018-04-18T13:08:10.740Z,7.28
2018-04-18T13:09:16.700Z,6.22
2018-04-18T13:10:21.428Z,7.22
2018-04-18T13:11:26.314Z,7.57
2018-04-18T13:12:30.306Z,6.82
2018-04-18T13:13:37.069Z,7.80
2018-04-18T13:14:41.163Z,7.10
2018-04-18T13:15:45.152Z,7.30
2018-04-18T13:16:49.536Z,7.35
2018-04-18T13:17:56.240Z,7.97
2018-04-18T13:19:00.884Z,8.20
2018-04-18T13:20:05.354Z,7.43
2018-04-18T13:21:09.604Z,8.10
2018-04-18T13:22:13.959Z,7.75
2018-04-18T13:23:18.220Z,7.78
2018-04-18T13:24:24.223Z,7.18
2018-04-18T13:25:29.286Z,8.13
2018-04-18T13:26:33.964Z,8.95
2018-04-18T13:27:40.106Z,6.75
2018-04-18T13:28:44.984Z,7.43
2018-04-18T13:29:49.457Z,9.43
2018-04-18T13:30:54.009Z,7.22
2018-04-18T13:31:58.083Z,7.35
2018-04-18T13:33:02.205Z,7.18
2018-04-18T13:34:07.227Z,6.60
2018-04-18T13:35:12.441Z,7.47
2018-04-18T13:36:17.761Z,7.70
2018-04-18T13:37:22.457Z,6.80
2018-04-18T13:38:26.936Z,6.72
2018-04-18T13:39:30.928Z,7.07
2018-04-18T13:40:35.203Z,6.95
2018-04-18T13:41:40.025Z,6.57
2018-04-18T13:42:45.020Z,8.05
2018-04-18T13:43:49.192Z,7.05
2018-04-18T13:44:53.341Z,6.50
2018-04-18T13:45:57.542Z,6.93
2018-04-18T13:47:02.311Z,7.32
2018-04-18T13:48:06.420Z,6.55
2018-04-18T13:49:11.108Z,6.15
2018-04-18T13:50:15.413Z,7.62
2018-04-18T13:51:19.596Z,6.45
2018-04-18T13:52:24.138Z,7.55
2018-04-18T13:53:29.375Z,6.50
2018-04-18T13:54:35.964Z,6.20
2018-04-18T13:55:40.684Z,5.90
2018-04-18T13:56:44.865Z,6.35
2018-04-18T13:57:49.831Z,6.65
2018-04-18T13:58:54.204Z,5.90
2018-04-18T14:00:00.403Z,6.40
2018-04-18T14:01:04.373Z,6.20
2018-04-18T14:02:08.388Z,5.93
2018-04-18T14:03:13.662Z,5.97
2018-04-18T14:04:19.122Z,6.30
2018-04-18T14:05:24.493Z,6.32
2018-04-18T14:06:29.248Z,6.20
2018-04-18T14:07:33.274Z,6.12
2018-04-18T14:08:38.003Z,5.60
2018-04-18T14:09:42.882Z,6.37
2018-04-18T14:10:48.227Z,6.22
2018-04-18T14:11:53.889Z,6.12
2018-04-18T14:13:00.208Z,5.57
2018-04-18T14:14:05.847Z,4.65
2018-04-18T14:15:09.884Z,5.80
2018-04-18T14:16:14.893Z,5.82
2018-04-18T14:17:18.976Z,5.00
2018-04-18T14:18:23.130Z,5.20
2018-04-18T14:19:27.518Z,5.65
2018-04-18T14:20:32.856Z,5.60
2018-04-18T14:21:38.224Z,6.50
2018-04-18T14:22:42.421Z,5.62
2018-04-18T14:23:46.361Z,5.35
2018-04-18T14:24:50.483Z,5.75
2018-04-18T14:25:55.262Z,6.20
2018-04-18T14:27:00.143Z,5.32
2018-04-18T14:30:13.376Z,5.15
2018-04-18T14:31:19.112Z,5.00
2018-04-18T14:32:23.980Z,5.75
2018-04-18T14:33:31.675Z,5.53
2018-04-18T14:34:38.612Z,4.93
2018-04-18T14:35:44.343Z,5.85
2018-04-18T14:36:49.213Z,5.45
2018-04-18T14:37:53.617Z,5.55
2018-04-18T14:38:57.856Z,6.18
2018-04-18T14:40:02.665Z,4.97
2018-04-18T14:41:10.303Z,4.62
2018-04-18T14:42:15.088Z,5.40